オウル の空港の天気 - METARとTAF

オウル空港 ( EFOU / OUL ) - フィンランド Oulunsalo
飛行場実況気象(Metar)
観測時間05/25 08:20 EEST (05/25 05:20 UTC)
風向・風速北 3m/s
視程10km以上
天気現象
なし
気温13℃
湿度58%
気圧1022hPa
METAREFOU 250520Z AUTO 35005KT 320V020 CAVOK 13/05 Q1022
過去の天気等 Google飛行場航空写真 Wunderground天気予報

過去48時間のMETAR

飛行場予報(TAF)
発表時間: 5/25 08:21 EEST (5/25 05:21 UTC)
予報対象時間: 25日9時 EEST ~ 26日9時 EEST
風向・風速北北西 3m/s
視程10km以上
なし
TAF EFOU 250521Z 2506/2606 33005KT CAVOK